createdAt,value
2023-11-20T00:07:06.844Z,2.92
2023-11-20T00:14:43.898Z,2.47
2023-11-20T00:22:19.026Z,2.10
2023-11-20T00:29:54.569Z,2.53
2023-11-20T00:37:28.851Z,2.10
2023-11-20T00:45:04.567Z,2.50
2023-11-20T00:52:38.395Z,2.67
2023-11-20T01:00:16.178Z,2.40
2023-11-20T01:07:50.066Z,2.13
2023-11-20T01:15:30.346Z,4.22
2023-11-20T01:23:04.764Z,3.70
2023-11-20T01:30:42.368Z,4.40
2023-11-20T01:38:17.592Z,3.90
2023-11-20T01:46:06.355Z,3.90
2023-11-20T01:53:41.062Z,3.72
2023-11-20T02:01:16.445Z,3.20
2023-11-20T02:08:50.223Z,2.17
2023-11-20T02:16:26.371Z,1.88
2023-11-20T02:24:00.313Z,2.47
2023-11-20T02:31:36.001Z,2.23
2023-11-20T02:39:10.753Z,1.70
2023-11-20T02:54:22.238Z,1.10
2023-11-20T03:01:56.483Z,1.48
2023-11-20T03:09:32.193Z,2.60
2023-11-20T03:17:06.657Z,2.90
2023-11-20T03:24:43.094Z,1.88
2023-11-20T03:32:17.071Z,1.52
2023-11-20T03:39:52.388Z,1.20
2023-11-20T03:47:26.372Z,1.90
2023-11-20T03:55:01.811Z,2.87
2023-11-20T04:02:36.314Z,2.05
2023-11-20T04:10:12.931Z,1.40
2023-11-20T04:17:47.296Z,1.00
2023-11-20T04:25:23.372Z,1.13
2023-11-20T04:32:57.546Z,3.40
2023-11-20T04:40:33.418Z,2.00
2023-11-20T04:48:11.329Z,1.05
2023-11-20T04:55:46.772Z,1.10
2023-11-20T05:03:22.500Z,1.50
2023-11-20T05:10:58.305Z,1.63
2023-11-20T05:18:32.505Z,2.10
2023-11-20T05:26:08.540Z,1.10
2023-11-20T05:33:42.566Z,0.77
2023-11-20T05:41:19.600Z,0.97
2023-11-20T05:48:56.309Z,1.48
2023-11-20T05:56:32.740Z,2.22
2023-11-20T06:04:08.014Z,1.35
2023-11-20T06:11:49.303Z,1.15
2023-11-20T06:19:28.909Z,0.85
2023-11-20T06:27:04.710Z,0.73
2023-11-20T06:34:38.540Z,1.23
2023-11-20T06:42:16.897Z,2.47
2023-11-20T06:49:50.720Z,1.45
2023-11-20T06:57:26.071Z,1.00
2023-11-20T07:05:03.090Z,1.40
2023-11-20T07:12:42.019Z,1.98
2023-11-20T07:20:16.563Z,2.70
2023-11-20T07:27:52.260Z,4.03
2023-11-20T07:35:26.364Z,2.47
2023-11-20T07:43:02.104Z,2.13
2023-11-20T07:50:36.041Z,2.95
2023-11-20T07:58:13.172Z,3.10
2023-11-20T08:05:49.524Z,1.65
2023-11-20T08:13:25.769Z,1.95
2023-11-20T08:21:01.434Z,1.27
2023-11-20T08:28:38.203Z,0.90
2023-11-20T08:36:13.516Z,1.10
2023-11-20T08:43:50.833Z,1.20
2023-11-20T08:51:24.673Z,1.08
2023-11-20T08:59:00.006Z,0.90
2023-11-20T09:06:35.461Z,0.70
2023-11-20T09:14:13.182Z,0.75
2023-11-20T09:21:47.675Z,0.40
2023-11-20T09:29:23.089Z,0.38
2023-11-20T09:36:57.180Z,0.40
2023-11-20T09:44:36.574Z,0.30
2023-11-20T09:52:11.168Z,0.55
2023-11-20T09:59:47.383Z,1.75
2023-11-20T10:07:25.076Z,0.52
2023-11-20T10:15:01.160Z,0.50
2023-11-20T10:22:36.790Z,0.50
2023-11-20T10:30:15.108Z,0.40
2023-11-20T10:37:59.291Z,0.30
2023-11-20T10:45:35.811Z,0.30
2023-11-20T10:53:09.883Z,0.40
2023-11-20T11:00:47.621Z,0.40
2023-11-20T11:08:22.413Z,0.40
2023-11-20T11:16:02.976Z,0.30
2023-11-20T11:23:41.064Z,0.30
2023-11-20T11:31:18.866Z,0.77
2023-11-20T11:39:00.062Z,0.20
2023-11-20T11:46:37.500Z,0.35
2023-11-20T11:54:15.056Z,0.20
2023-11-20T12:01:50.406Z,0.30
2023-11-20T12:09:44.496Z,0.22
2023-11-20T12:17:19.992Z,0.20
2023-11-20T12:24:54.544Z,0.35
2023-11-20T12:32:29.974Z,1.17
2023-11-20T12:40:03.872Z,0.70
2023-11-20T12:47:40.000Z,0.80
2023-11-20T12:55:14.584Z,0.63
2023-11-20T13:02:56.709Z,0.95
2023-11-20T13:10:32.846Z,1.08
2023-11-20T13:18:09.385Z,0.90
2023-11-20T13:25:43.987Z,0.98
2023-11-20T13:33:20.420Z,0.98
2023-11-20T13:40:55.926Z,1.38
2023-11-20T13:48:32.953Z,1.20
2023-11-20T13:56:07.542Z,1.05
2023-11-20T14:03:43.181Z,0.75
2023-11-20T14:11:17.001Z,0.98
2023-11-20T14:18:53.162Z,0.77
2023-11-20T14:26:34.024Z,0.60
2023-11-20T14:34:12.148Z,0.77
2023-11-20T14:41:46.201Z,0.80
2023-11-20T14:49:21.827Z,0.80
2023-11-20T14:56:55.791Z,0.63
2023-11-20T15:04:31.876Z,3.42
2023-11-20T15:12:07.210Z,13.60
2023-11-20T15:19:42.625Z,7.50
2023-11-20T15:27:17.446Z,1.80
2023-11-20T15:42:28.341Z,1.50
2023-11-20T15:50:02.918Z,0.85
2023-11-20T15:57:38.610Z,0.80
2023-11-20T16:05:14.567Z,1.65
2023-11-20T16:12:49.910Z,2.13
2023-11-20T16:20:24.327Z,1.40
2023-11-20T16:27:59.685Z,1.95
2023-11-20T16:35:38.504Z,2.95
2023-11-20T16:43:15.631Z,3.13
2023-11-20T16:50:49.879Z,3.78
2023-11-20T16:58:25.342Z,1.30
2023-11-20T17:05:59.245Z,2.33
2023-11-20T17:13:34.769Z,2.25
2023-11-20T17:21:09.632Z,2.53
2023-11-20T17:28:45.580Z,2.35
2023-11-20T17:36:21.368Z,2.50
2023-11-20T17:43:57.743Z,2.60
2023-11-20T17:51:31.629Z,2.40
2023-11-20T17:59:12.426Z,3.07
2023-11-20T18:06:47.484Z,2.90
2023-11-20T18:14:23.152Z,2.40
2023-11-20T18:21:57.306Z,3.00
2023-11-20T18:29:37.436Z,3.40
2023-11-20T18:37:17.391Z,3.05
2023-11-20T18:44:53.275Z,3.53
2023-11-20T18:52:27.286Z,3.47
2023-11-20T19:00:02.951Z,4.03
2023-11-20T19:07:37.212Z,3.35
2023-11-20T19:15:13.566Z,2.90
2023-11-20T19:22:48.574Z,3.13
2023-11-20T19:30:26.434Z,2.67
2023-11-20T19:38:00.252Z,2.92
2023-11-20T19:45:37.760Z,1.50
2023-11-20T19:53:12.739Z,2.05
2023-11-20T20:00:48.389Z,1.80
2023-11-20T20:08:24.597Z,1.85
2023-11-20T20:16:00.953Z,1.95
2023-11-20T20:23:35.845Z,1.40
2023-11-20T20:31:11.376Z,1.70
2023-11-20T20:38:46.503Z,1.73
2023-11-20T20:46:34.049Z,1.80
2023-11-20T20:54:08.263Z,1.55
2023-11-20T21:01:46.075Z,1.70
2023-11-20T21:09:22.085Z,1.55
2023-11-20T21:16:58.133Z,2.13
2023-11-20T21:24:32.604Z,2.00
2023-11-20T21:32:09.046Z,2.63
2023-11-20T21:39:43.047Z,2.15
2023-11-20T21:47:18.817Z,2.60
2023-11-20T21:54:52.905Z,1.98
2023-11-20T22:02:28.706Z,1.63
2023-11-20T22:10:02.713Z,1.30
2023-11-20T22:17:38.696Z,1.40
2023-11-20T22:25:14.184Z,1.58
2023-11-20T22:32:49.707Z,1.42
2023-11-20T22:40:24.108Z,1.27
2023-11-20T22:48:02.418Z,1.52
2023-11-20T22:55:36.800Z,1.42
2023-11-20T23:03:13.180Z,1.98
2023-11-20T23:10:47.293Z,1.75
2023-11-20T23:18:22.779Z,1.37
2023-11-20T23:25:57.016Z,1.63
2023-11-20T23:33:32.595Z,1.80
2023-11-20T23:41:06.598Z,2.20
2023-11-20T23:48:43.116Z,1.60
2023-11-20T23:56:21.653Z,1.40
